createdAt,value
2022-10-23T00:01:20.803Z,6.30
2022-10-23T00:03:48.085Z,6.55
2022-10-23T00:06:14.928Z,7.65
2022-10-23T00:08:42.011Z,5.53
2022-10-23T00:11:11.470Z,6.93
2022-10-23T00:13:38.973Z,6.88
2022-10-23T00:16:06.490Z,4.40
2022-10-23T00:18:33.523Z,5.88
2022-10-23T00:21:00.901Z,7.35
2022-10-23T00:23:27.686Z,5.85
2022-10-23T00:25:54.247Z,6.95
2022-10-23T00:28:21.055Z,5.47
2022-10-23T00:30:47.705Z,5.60
2022-10-23T00:33:14.428Z,6.82
2022-10-23T00:35:42.281Z,9.13
2022-10-23T00:38:09.742Z,8.18
2022-10-23T00:40:37.088Z,5.95
2022-10-23T00:43:03.916Z,5.82
2022-10-23T00:45:34.251Z,6.85
2022-10-23T00:48:02.104Z,5.63
2022-10-23T00:50:32.089Z,7.00
2022-10-23T00:53:01.835Z,4.68
2022-10-23T00:55:29.326Z,5.95
2022-10-23T00:57:56.301Z,6.00
2022-10-23T01:00:30.094Z,5.07
2022-10-23T01:02:57.566Z,5.53
2022-10-23T01:05:44.714Z,4.50
2022-10-23T01:08:39.979Z,4.93
2022-10-23T01:11:33.186Z,5.45
2022-10-23T01:14:13.762Z,6.85
2022-10-23T01:16:49.721Z,6.85
2022-10-23T01:19:36.728Z,6.03
2022-10-23T01:25:03.137Z,7.10
2022-10-23T01:27:40.737Z,9.45
2022-10-23T01:30:09.442Z,8.45
2022-10-23T01:32:49.513Z,6.57
2022-10-23T01:35:31.900Z,5.68
2022-10-23T01:38:25.474Z,7.93
2022-10-23T01:41:04.165Z,8.68
2022-10-23T01:43:38.948Z,7.13
2022-10-23T01:46:09.475Z,7.72
2022-10-23T01:48:37.567Z,8.13
2022-10-23T01:51:09.724Z,7.07
2022-10-23T01:53:41.187Z,7.75
2022-10-23T01:56:12.910Z,6.90
2022-10-23T01:58:43.875Z,4.90
2022-10-23T02:01:12.136Z,3.97
2022-10-23T02:03:40.542Z,6.20
2022-10-23T02:06:07.604Z,5.03
2022-10-23T02:08:34.493Z,6.97
2022-10-23T02:11:08.299Z,5.63
2022-10-23T02:13:47.194Z,6.10
2022-10-23T02:16:38.223Z,6.70
2022-10-23T02:19:35.147Z,6.32
2022-10-23T02:22:04.459Z,6.28
2022-10-23T02:24:36.023Z,5.28
2022-10-23T02:27:08.473Z,5.03
2022-10-23T02:29:45.921Z,5.22
2022-10-23T02:32:14.881Z,5.72
2022-10-23T02:34:41.685Z,5.05
2022-10-23T02:37:08.293Z,5.30
2022-10-23T02:39:35.084Z,4.00
2022-10-23T02:42:23.271Z,5.85
2022-10-23T02:45:01.899Z,5.28
2022-10-23T02:47:28.491Z,4.13
2022-10-23T02:50:17.764Z,5.10
2022-10-23T02:53:07.289Z,5.35
2022-10-23T02:55:56.661Z,5.70
2022-10-23T02:58:37.810Z,5.28
2022-10-23T03:01:19.294Z,5.35
2022-10-23T03:03:52.615Z,5.25
2022-10-23T03:06:19.682Z,3.55
2022-10-23T03:08:53.484Z,4.03
2022-10-23T03:11:20.363Z,5.45
2022-10-23T03:13:46.940Z,4.35
2022-10-23T03:16:13.497Z,6.28
2022-10-23T03:18:40.078Z,5.35
2022-10-23T03:21:06.709Z,3.60
2022-10-23T03:23:33.322Z,5.75
2022-10-23T03:25:59.927Z,4.00
2022-10-23T03:28:26.764Z,4.18
2022-10-23T03:30:53.337Z,4.10
2022-10-23T03:33:19.960Z,4.18
2022-10-23T03:38:19.774Z,4.22
2022-10-23T03:40:46.344Z,4.63
2022-10-23T03:43:12.985Z,5.32
2022-10-23T03:45:42.773Z,3.80
2022-10-23T03:48:09.395Z,6.35
2022-10-23T03:50:36.130Z,5.10
2022-10-23T03:53:02.822Z,4.30
2022-10-23T03:55:29.652Z,4.68
2022-10-23T03:57:56.241Z,4.47
2022-10-23T04:00:22.884Z,5.20
2022-10-23T04:02:49.525Z,4.80
2022-10-23T04:05:16.166Z,3.67
2022-10-23T04:07:42.743Z,3.85
2022-10-23T04:10:09.704Z,4.78
2022-10-23T04:12:36.320Z,5.97
2022-10-23T04:15:03.067Z,4.50
2022-10-23T04:17:29.657Z,4.45
2022-10-23T04:19:56.430Z,4.72
2022-10-23T04:22:25.933Z,4.57
2022-10-23T04:24:54.154Z,3.88
2022-10-23T04:27:20.763Z,4.30
2022-10-23T04:32:38.262Z,4.07
2022-10-23T04:35:05.851Z,3.60
2022-10-23T04:37:32.582Z,3.40
2022-10-23T04:39:59.131Z,3.55
2022-10-23T04:44:57.317Z,4.20
2022-10-23T04:47:24.956Z,3.67
2022-10-23T04:49:51.595Z,4.53
2022-10-23T04:52:18.193Z,4.25
2022-10-23T04:54:44.744Z,3.83
2022-10-23T04:57:11.318Z,4.03
2022-10-23T04:59:37.889Z,6.07
2022-10-23T05:02:04.624Z,4.30
2022-10-23T05:04:31.463Z,5.43
2022-10-23T05:06:58.046Z,4.45
2022-10-23T05:09:24.599Z,5.20
2022-10-23T05:11:51.246Z,4.35
2022-10-23T05:14:21.981Z,4.30
2022-10-23T05:17:00.842Z,5.75
2022-10-23T05:19:33.880Z,4.72
2022-10-23T05:22:01.455Z,5.13
2022-10-23T05:24:28.126Z,4.88
2022-10-23T05:26:54.673Z,5.90
2022-10-23T05:29:21.433Z,7.28
2022-10-23T05:31:56.112Z,5.03
2022-10-23T05:34:25.567Z,4.50
2022-10-23T05:36:53.163Z,5.10
2022-10-23T05:39:20.635Z,5.30
2022-10-23T05:41:47.211Z,5.25
2022-10-23T05:44:13.789Z,6.07
2022-10-23T05:46:42.106Z,4.50
2022-10-23T05:49:08.851Z,5.38
2022-10-23T05:51:40.600Z,4.35
2022-10-23T05:54:08.184Z,5.60
2022-10-23T05:56:36.311Z,5.55
2022-10-23T05:59:03.806Z,4.45
2022-10-23T06:01:30.819Z,5.03
2022-10-23T06:03:59.305Z,5.85
2022-10-23T06:06:26.095Z,4.53
2022-10-23T06:08:53.190Z,4.32
2022-10-23T06:11:19.778Z,6.07
2022-10-23T06:13:48.267Z,6.53
2022-10-23T06:16:16.072Z,6.25
2022-10-23T06:18:43.365Z,6.28
2022-10-23T06:21:10.320Z,6.38
2022-10-23T06:23:38.392Z,5.78
2022-10-23T06:26:06.187Z,5.63
2022-10-23T06:28:32.906Z,5.13
2022-10-23T06:30:59.529Z,6.40
2022-10-23T06:33:26.118Z,7.15
2022-10-23T06:35:56.238Z,4.72
2022-10-23T06:38:22.934Z,6.00
2022-10-23T06:40:56.736Z,4.57
2022-10-23T06:43:23.428Z,5.18
2022-10-23T06:45:50.019Z,4.63
2022-10-23T06:48:16.569Z,4.07
2022-10-23T06:50:43.310Z,4.68
2022-10-23T06:53:09.922Z,4.05
2022-10-23T06:58:10.566Z,4.70
2022-10-23T07:00:40.337Z,4.93
2022-10-23T07:03:08.515Z,5.28
2022-10-23T07:05:35.103Z,5.28
2022-10-23T07:08:03.946Z,4.80
2022-10-23T07:10:30.504Z,5.13
2022-10-23T07:13:00.701Z,5.40
2022-10-23T07:15:27.701Z,3.90
2022-10-23T07:17:54.292Z,8.88
2022-10-23T07:20:21.144Z,6.13
2022-10-23T07:22:53.042Z,6.30
2022-10-23T07:25:19.956Z,6.03
2022-10-23T07:27:46.638Z,6.15
2022-10-23T07:30:14.511Z,4.75
2022-10-23T07:32:42.417Z,4.50
2022-10-23T07:35:10.538Z,4.18
2022-10-23T07:37:37.411Z,5.28
2022-10-23T07:40:07.531Z,5.10
2022-10-23T07:42:34.524Z,4.90
2022-10-23T07:45:01.598Z,3.92
2022-10-23T07:47:28.158Z,4.40
2022-10-23T07:49:54.792Z,6.13
2022-10-23T07:52:21.375Z,4.18
2022-10-23T07:54:52.091Z,4.75
2022-10-23T07:57:19.467Z,4.07
2022-10-23T07:59:46.216Z,4.03
2022-10-23T08:02:14.925Z,4.80
2022-10-23T08:04:41.580Z,4.60
2022-10-23T08:07:08.121Z,5.93
2022-10-23T08:09:35.207Z,4.25
2022-10-23T08:12:01.922Z,4.82
2022-10-23T08:14:28.694Z,5.07
2022-10-23T08:16:55.425Z,5.53
2022-10-23T08:19:22.038Z,5.10
2022-10-23T08:21:48.712Z,5.55
2022-10-23T08:24:15.346Z,4.35
2022-10-23T08:26:41.930Z,13.85
2022-10-23T08:29:08.655Z,7.38
2022-10-23T08:31:35.262Z,5.97
2022-10-23T08:34:01.852Z,3.88
2022-10-23T08:36:29.263Z,6.53
2022-10-23T08:38:57.533Z,3.80
2022-10-23T08:41:34.941Z,4.15
2022-10-23T08:44:12.845Z,2.53
2022-10-23T08:46:44.154Z,4.18
2022-10-23T08:49:13.908Z,2.72
2022-10-23T08:51:43.926Z,2.63
2022-10-23T08:54:19.613Z,3.72
2022-10-23T08:56:54.297Z,3.65
2022-10-23T08:59:40.236Z,3.08
2022-10-23T09:02:17.910Z,3.95
2022-10-23T09:04:47.885Z,6.13
2022-10-23T09:07:38.652Z,3.67
2022-10-23T09:10:31.237Z,3.70
2022-10-23T09:13:06.110Z,3.13
2022-10-23T09:15:42.214Z,5.03
2022-10-23T09:18:14.235Z,3.50
2022-10-23T09:20:42.217Z,4.10
2022-10-23T09:23:19.788Z,5.93
2022-10-23T09:25:47.570Z,3.78
2022-10-23T09:28:27.238Z,4.88
2022-10-23T09:30:53.968Z,2.35
2022-10-23T09:33:23.544Z,4.55
2022-10-23T09:35:56.163Z,3.90
2022-10-23T09:38:33.545Z,3.15
2022-10-23T09:41:16.029Z,2.97
2022-10-23T09:43:43.145Z,3.10
2022-10-23T09:46:11.793Z,3.53
2022-10-23T09:48:39.465Z,3.40
2022-10-23T09:51:21.911Z,2.70
2022-10-23T09:53:53.359Z,3.60
2022-10-23T09:56:40.569Z,2.37
2022-10-23T09:59:13.209Z,4.03
2022-10-23T10:01:51.712Z,2.33
2022-10-23T10:04:18.710Z,2.75
2022-10-23T10:06:45.376Z,6.32
2022-10-23T10:09:16.560Z,4.15
2022-10-23T10:11:48.135Z,3.30
2022-10-23T10:15:07.065Z,3.15
2022-10-23T10:17:58.365Z,2.50
2022-10-23T10:20:51.836Z,3.55
2022-10-23T10:23:46.227Z,3.22
2022-10-23T10:26:24.776Z,2.03
2022-10-23T10:28:51.352Z,2.42
2022-10-23T10:31:52.974Z,3.00
2022-10-23T10:34:41.185Z,2.65
2022-10-23T10:37:20.094Z,2.47
2022-10-23T10:40:19.326Z,3.00
2022-10-23T10:43:04.739Z,3.35
2022-10-23T10:45:37.520Z,2.78
2022-10-23T10:48:04.218Z,2.78
2022-10-23T10:50:42.315Z,2.58
2022-10-23T10:53:23.934Z,3.92
2022-10-23T10:55:54.215Z,2.60
2022-10-23T10:58:41.422Z,2.67
2022-10-23T11:01:16.964Z,3.42
2022-10-23T11:03:55.161Z,2.10
2022-10-23T11:06:25.690Z,2.90
2022-10-23T11:08:57.855Z,2.85
2022-10-23T11:11:40.499Z,3.10
2022-10-23T11:14:19.566Z,2.42
2022-10-23T11:16:50.377Z,2.75
2022-10-23T11:19:34.174Z,2.17
2022-10-23T11:22:24.020Z,2.10
2022-10-23T11:25:02.779Z,1.52
2022-10-23T11:27:54.246Z,2.83
2022-10-23T11:30:35.678Z,2.13
2022-10-23T11:33:27.472Z,2.10
2022-10-23T11:36:16.285Z,1.80
2022-10-23T11:38:49.510Z,1.83
2022-10-23T11:41:26.687Z,1.98
2022-10-23T11:44:03.902Z,2.58
2022-10-23T11:46:32.163Z,2.05
2022-10-23T11:49:02.332Z,2.33
2022-10-23T11:51:33.645Z,2.65
2022-10-23T11:54:13.412Z,3.08
2022-10-23T11:57:08.078Z,2.55
2022-10-23T11:59:48.450Z,2.45
2022-10-23T12:02:31.790Z,2.03
2022-10-23T12:05:06.427Z,2.55
2022-10-23T12:07:41.901Z,2.53
2022-10-23T12:10:25.362Z,2.03
2022-10-23T12:13:01.815Z,2.47
2022-10-23T12:15:28.604Z,2.03
2022-10-23T12:18:13.858Z,1.75
2022-10-23T12:20:58.400Z,1.67
2022-10-23T12:23:45.781Z,2.92
2022-10-23T12:26:20.496Z,1.80
2022-10-23T12:31:22.839Z,2.40
2022-10-23T12:34:23.114Z,2.55
2022-10-23T12:37:23.878Z,2.80
2022-10-23T12:39:55.344Z,2.78
2022-10-23T12:42:27.674Z,1.57
2022-10-23T12:47:24.860Z,1.88
2022-10-23T12:49:52.345Z,2.75
2022-10-23T12:52:21.105Z,1.95
2022-10-23T12:54:50.664Z,2.63
2022-10-23T12:57:26.411Z,1.38
2022-10-23T13:00:10.318Z,2.08
2022-10-23T13:02:37.138Z,1.42
2022-10-23T13:05:07.974Z,1.63
2022-10-23T13:07:42.679Z,2.40
2022-10-23T13:10:15.679Z,1.77
2022-10-23T13:15:21.009Z,2.08
2022-10-23T13:18:03.438Z,2.40
2022-10-23T13:23:29.904Z,1.77
2022-10-23T13:26:22.522Z,1.95
2022-10-23T13:28:49.753Z,2.47
2022-10-23T13:31:16.317Z,1.85
2022-10-23T13:33:44.283Z,2.53
2022-10-23T13:36:13.611Z,2.33
2022-10-23T13:38:45.726Z,2.90
2022-10-23T13:41:18.231Z,2.25
2022-10-23T13:43:46.194Z,1.73
2022-10-23T13:46:21.017Z,2.83
2022-10-23T13:48:48.333Z,2.17
2022-10-23T13:51:27.355Z,2.42
2022-10-23T13:53:55.554Z,1.50
2022-10-23T13:56:23.909Z,1.30
2022-10-23T13:58:50.757Z,2.08
2022-10-23T14:01:29.582Z,1.75
2022-10-23T14:03:58.111Z,2.28
2022-10-23T14:06:24.838Z,2.78
2022-10-23T14:08:52.158Z,2.28
2022-10-23T14:11:19.904Z,2.33
2022-10-23T14:13:47.236Z,2.38
2022-10-23T14:16:16.309Z,1.98
2022-10-23T14:18:43.503Z,2.53
2022-10-23T14:21:12.339Z,2.05
2022-10-23T14:23:39.079Z,2.28
2022-10-23T14:26:08.090Z,3.10
2022-10-23T14:28:34.944Z,1.98
2022-10-23T14:31:13.418Z,2.03
2022-10-23T14:33:40.827Z,1.95
2022-10-23T14:36:08.500Z,2.25
2022-10-23T14:38:35.197Z,2.50
2022-10-23T14:41:02.075Z,2.13
2022-10-23T14:43:31.742Z,1.88
2022-10-23T14:46:08.582Z,2.38
2022-10-23T14:48:37.614Z,2.92
2022-10-23T14:51:06.883Z,2.22
2022-10-23T14:53:33.921Z,2.70
2022-10-23T14:56:06.641Z,3.17
2022-10-23T14:58:33.230Z,2.47
2022-10-23T15:01:01.662Z,3.20
2022-10-23T15:03:28.808Z,2.38
2022-10-23T15:05:55.711Z,2.63
2022-10-23T15:08:23.084Z,2.20
2022-10-23T15:10:49.997Z,2.58
2022-10-23T15:13:16.817Z,4.82
2022-10-23T15:15:44.318Z,1.58
2022-10-23T15:18:11.054Z,2.47
2022-10-23T15:20:37.627Z,2.50
2022-10-23T15:23:04.211Z,2.05
2022-10-23T15:25:30.784Z,3.00
2022-10-23T15:27:57.420Z,2.15
2022-10-23T15:30:23.996Z,2.38
2022-10-23T15:32:50.663Z,2.70
2022-10-23T15:35:20.300Z,2.58
2022-10-23T15:37:47.045Z,2.05
2022-10-23T15:40:13.745Z,2.40
2022-10-23T15:42:40.387Z,2.35
2022-10-23T15:45:07.469Z,3.45
2022-10-23T15:47:34.079Z,2.72
2022-10-23T15:50:00.743Z,2.63
2022-10-23T15:52:27.368Z,2.80
2022-10-23T15:54:53.937Z,2.92
2022-10-23T15:57:20.492Z,2.28
2022-10-23T15:59:47.792Z,2.60
2022-10-23T16:02:15.373Z,2.28
2022-10-23T16:04:42.142Z,2.35
2022-10-23T16:07:08.906Z,2.83
2022-10-23T16:09:35.566Z,2.53
2022-10-23T16:12:02.156Z,2.97
2022-10-23T16:14:28.722Z,2.85
2022-10-23T16:16:55.317Z,2.63
2022-10-23T16:19:21.937Z,2.22
2022-10-23T16:21:48.561Z,2.67
2022-10-23T16:24:15.209Z,2.22
2022-10-23T16:26:41.926Z,2.45
2022-10-23T16:29:09.285Z,2.55
2022-10-23T16:31:36.208Z,2.22
2022-10-23T16:34:04.687Z,2.97
2022-10-23T16:36:31.357Z,2.88
2022-10-23T16:38:58.271Z,3.03
2022-10-23T16:41:24.854Z,3.05
2022-10-23T16:43:51.439Z,3.13
2022-10-23T16:46:20.106Z,4.18
2022-10-23T16:48:47.437Z,3.08
2022-10-23T16:51:16.258Z,3.88
2022-10-23T16:53:44.118Z,2.45
2022-10-23T16:56:15.168Z,2.85
2022-10-23T16:58:42.431Z,2.75
2022-10-23T17:01:10.414Z,2.92
2022-10-23T17:03:39.530Z,3.38
2022-10-23T17:06:11.200Z,2.38
2022-10-23T17:08:38.466Z,3.45
2022-10-23T17:11:12.386Z,2.15
2022-10-23T17:13:42.939Z,1.90
2022-10-23T17:16:22.248Z,2.10
2022-10-23T17:18:49.854Z,2.20
2022-10-23T17:21:18.654Z,2.53
2022-10-23T17:23:45.375Z,3.35
2022-10-23T17:26:15.098Z,2.47
2022-10-23T17:28:42.896Z,4.10
2022-10-23T17:31:24.553Z,2.25
2022-10-23T17:33:54.115Z,3.23
2022-10-23T17:36:22.221Z,4.40
2022-10-23T17:38:49.202Z,2.38
2022-10-23T17:41:17.373Z,3.58
2022-10-23T17:43:44.719Z,2.47
2022-10-23T17:46:12.757Z,3.65
2022-10-23T17:48:41.785Z,2.60
2022-10-23T17:51:14.370Z,1.33
2022-10-23T17:53:43.164Z,2.05
2022-10-23T17:56:13.596Z,2.13
2022-10-23T17:58:40.129Z,2.42
2022-10-23T18:01:12.580Z,3.30
2022-10-23T18:03:40.393Z,10.52
2022-10-23T18:06:29.628Z,8.40
2022-10-23T18:08:56.936Z,3.05
2022-10-23T18:11:39.346Z,2.47
2022-10-23T18:14:07.519Z,2.53
2022-10-23T18:16:37.754Z,2.92
2022-10-23T18:19:04.889Z,2.88
2022-10-23T18:21:31.941Z,2.08
2022-10-23T18:23:59.989Z,2.53
2022-10-23T18:26:29.790Z,3.08
2022-10-23T18:28:59.101Z,2.45
2022-10-23T18:31:29.560Z,1.83
2022-10-23T18:34:04.853Z,1.80
2022-10-23T18:36:37.639Z,2.50
2022-10-23T18:39:06.029Z,2.28
2022-10-23T18:41:38.083Z,2.63
2022-10-23T18:44:04.875Z,2.35
2022-10-23T18:46:31.500Z,2.17
2022-10-23T18:48:58.339Z,3.25
2022-10-23T18:51:28.530Z,3.63
2022-10-23T18:53:55.559Z,2.63
2022-10-23T18:56:25.819Z,3.35
2022-10-23T18:58:58.078Z,3.15
2022-10-23T19:01:26.995Z,2.25
2022-10-23T19:06:26.804Z,2.50
2022-10-23T19:08:53.935Z,2.20
2022-10-23T19:11:23.125Z,3.28
2022-10-23T19:13:49.723Z,2.95
2022-10-23T19:16:27.417Z,3.47
2022-10-23T19:19:01.703Z,3.30
2022-10-23T19:21:33.481Z,3.28
2022-10-23T19:24:01.761Z,2.80
2022-10-23T19:26:31.008Z,2.83
2022-10-23T19:28:58.310Z,3.17
2022-10-23T19:31:26.695Z,4.13
2022-10-23T19:33:53.734Z,3.03
2022-10-23T19:36:23.398Z,3.28
2022-10-23T19:38:50.544Z,2.75
2022-10-23T19:41:18.247Z,2.90
2022-10-23T19:43:45.451Z,6.55
2022-10-23T19:46:12.381Z,4.13
2022-10-23T19:48:44.041Z,4.55
2022-10-23T19:51:12.687Z,2.67
2022-10-23T19:53:40.632Z,3.33
2022-10-23T19:56:09.320Z,2.40
2022-10-23T19:58:36.039Z,3.00
2022-10-23T20:01:12.916Z,3.38
2022-10-23T20:03:41.565Z,3.03
2022-10-23T20:06:13.182Z,2.90
2022-10-23T20:08:40.776Z,3.35
2022-10-23T20:11:08.448Z,3.65
2022-10-23T20:13:35.387Z,4.35
2022-10-23T20:16:02.063Z,3.35
2022-10-23T20:18:28.682Z,3.72
2022-10-23T20:20:55.306Z,3.20
2022-10-23T20:23:21.945Z,3.95
2022-10-23T20:25:48.588Z,2.95
2022-10-23T20:28:15.414Z,3.28
2022-10-23T20:30:44.320Z,3.17
2022-10-23T20:33:11.172Z,2.75
2022-10-23T20:35:40.102Z,3.08
2022-10-23T20:38:07.011Z,3.15
2022-10-23T20:40:33.752Z,3.42
2022-10-23T20:43:00.409Z,4.40
2022-10-23T20:45:27.081Z,2.72
2022-10-23T20:47:53.755Z,3.25
2022-10-23T20:50:20.790Z,2.85
2022-10-23T20:52:47.414Z,3.00
2022-10-23T20:55:13.975Z,3.15
2022-10-23T20:57:40.540Z,2.75
2022-10-23T21:00:07.678Z,2.50
2022-10-23T21:02:34.354Z,3.67
2022-10-23T21:05:00.958Z,2.53
2022-10-23T21:07:27.622Z,2.20
2022-10-23T21:09:54.167Z,3.20
2022-10-23T21:12:20.721Z,3.15
2022-10-23T21:14:47.288Z,3.17
2022-10-23T21:17:17.093Z,3.35
2022-10-23T21:19:43.720Z,2.92
2022-10-23T21:22:10.318Z,2.75
2022-10-23T21:24:36.908Z,2.90
2022-10-23T21:27:03.475Z,3.40
2022-10-23T21:29:30.024Z,3.35
2022-10-23T21:31:59.114Z,3.50
2022-10-23T21:34:26.632Z,3.53
2022-10-23T21:37:12.486Z,2.95
2022-10-23T21:39:39.918Z,2.60
2022-10-23T21:42:06.729Z,2.58
2022-10-23T21:44:33.388Z,3.58
2022-10-23T21:46:59.926Z,2.40
2022-10-23T21:49:26.625Z,2.67
2022-10-23T21:51:54.675Z,2.50
2022-10-23T21:54:21.262Z,2.78
2022-10-23T21:56:50.511Z,3.42
2022-10-23T21:59:19.634Z,3.20
2022-10-23T22:01:47.957Z,2.30
2022-10-23T22:04:17.307Z,2.55
2022-10-23T22:06:45.046Z,3.33
2022-10-23T22:09:13.625Z,4.55
2022-10-23T22:11:40.394Z,2.50
2022-10-23T22:14:06.993Z,3.33
2022-10-23T22:16:33.848Z,2.70
2022-10-23T22:19:00.454Z,3.58
2022-10-23T22:21:28.816Z,2.50
2022-10-23T22:23:57.480Z,2.03
2022-10-23T22:26:26.076Z,2.70
2022-10-23T22:28:54.693Z,2.80
2022-10-23T22:31:24.077Z,3.60
2022-10-23T22:33:52.186Z,2.58
2022-10-23T22:36:19.616Z,2.90
2022-10-23T22:38:46.818Z,3.03
2022-10-23T22:41:13.924Z,2.38
2022-10-23T22:43:40.710Z,2.63
2022-10-23T22:46:13.523Z,2.63
2022-10-23T22:48:40.518Z,2.00
2022-10-23T22:51:09.301Z,2.05
2022-10-23T22:53:35.940Z,3.22
2022-10-23T22:56:09.353Z,3.10
2022-10-23T22:58:36.579Z,2.40
2022-10-23T23:01:14.239Z,2.03
2022-10-23T23:03:41.492Z,2.25
2022-10-23T23:06:08.921Z,2.05
2022-10-23T23:08:37.170Z,3.28
2022-10-23T23:11:05.147Z,3.55
2022-10-23T23:13:31.933Z,3.58
2022-10-23T23:15:58.737Z,3.80
2022-10-23T23:18:25.828Z,2.17
2022-10-23T23:20:52.447Z,3.08
2022-10-23T23:23:19.671Z,2.67
2022-10-23T23:25:50.152Z,2.55
2022-10-23T23:28:19.881Z,1.83
2022-10-23T23:30:47.129Z,2.13
2022-10-23T23:33:15.566Z,3.30
2022-10-23T23:35:44.005Z,3.33
2022-10-23T23:38:11.719Z,2.72
2022-10-23T23:40:39.254Z,2.30
2022-10-23T23:43:06.399Z,2.97
2022-10-23T23:45:33.078Z,1.90
2022-10-23T23:47:59.813Z,3.50
2022-10-23T23:50:27.880Z,3.13
2022-10-23T23:52:54.568Z,3.55
2022-10-23T23:55:21.288Z,2.28
2022-10-23T23:57:48.023Z,3.50
